Placentia, CA (92870)

7:55 PM PST on December 28, 2014 (GMT -0800)
Yorba Linda Blvd. | Change Station
CLOSE
Current Station
Personal Weather Station
Location: Placentia, CA
Elevation: 308 ft
Nearby Weather Stations

Elev 308 ft 33.89 °N, 117.84 °W | Updated 3 minutes ago

Clear
Clear
47.9 °F
Feels Like 48 °F
N
0.0
Wind Variable Wind from SW

Today
High -- | Low -- °F
--% Chance of Precip.
Yesterday
High -- | Low -- °F
Precip. -- in
6:55 AM 4:50 PM
First Quarter, 54% visible
Pressure 30.19 in
Visibility 10.0 miles
Clouds Clear
Windchill 48 °F
Dew Point 39 °F
Humidity 71%
Rainfall 0.00 in
Snow Depth Not available.
UV 0 out of 12
Pollen 7.30 out of 12
Air Quality Not available.
Flu Activity Not available.
METAR KFUL 290253Z 00000KT 10SM CLR 12/04 A3019 RMK AO2 SLP221 T01170039 51009

More Conditions Fewer Conditions

Pressure 30.19 in
Visibility 10.0 miles
Clouds Clear
Windchill 48 °F
Dew Point 39 °F
Humidity 71%
Rainfall 0.00 in
Snow Depth Not available.
UV 0 out of 12
Pollen 7.30 out of 12
Air Quality Not available.
Flu Activity Not available.
METAR KFUL 290253Z 00000KT 10SM CLR 12/04 A3019 RMK AO2 SLP221 T01170039 51009

More Conditions Fewer Conditions

10-Day Weather Forecast

Almanac

Astronomy

Dec. 28, 2014 Rise Set
Actual Time
Civil Twilight
Nautical Twilight
Astronomical Twilight
Moon
Length of Visible Light
Length of Day
Tomorrow will be .
, % of the Moon is Illuminated

Today's Extremes

State Highs State Lows

Community

WunderPhotos

Upload Photos

1,781,520 photos uploaded!

WunderBlogs® & News

Nearby

Air Quality

  Air Quality AQ Index Pollutant
Not available.

Snow Depth

Station Depth Elevation

Earthquake Activity

City Distance Mag. Time & Date
Minimum magnitude displayed is 2.5.

Coastal Water Temperatures

Place Temperature

Nearby Weather Stations